Autumn — V7QA6 — position and weather

sailwx.info

Track history (hours):
 
Tides and Currents Weather Stations Pressure Air Temp Water Temp Dewpoint Dewpoint Depression Visibility Wind Speed Wind Dir Waves Ship Positions

Autumn

Last reported at 2016-Dec-09 03:31 UTC. Time now 2016-Dec-09 04:00 UTC.
Position N 52°27' E 004°08'.

Length 129 m; draft 6.2 m.

Type: Tanker. MMSI: 538003323.

Date/timePositionNaut miles runAvg speedWind from/ knotsBaromVisibWave heightAir tempDewpointWater temp
2016-Dec-09 03:31N 52°27' E 004°08'0 0.0
2016-Dec-09 02:31N 52°28' E 004°08'0 0.1
2016-Dec-09 01:31N 52°28' E 004°08'0 0.0
2016-Dec-09 00:31N 52°28' E 004°08'0 0.0
2016-Dec-08 23:31N 52°28' E 004°08'0 0.0
2016-Dec-08 22:31N 52°28' E 004°08'0 0.0
2016-Dec-08 21:31N 52°28' E 004°08'0 0.0
2016-Dec-08 20:31N 52°28' E 004°08'0 0.1
2016-Dec-08 19:27N 52°28' E 004°08'8 8.8
2016-Dec-08 18:33N 52°27' E 003°55'4710.9
2016-Dec-08 14:16N 51°51' E 003°05'911.8
2016-Dec-08 13:32N 51°45' E 003°13'1010.6
2016-Dec-08 12:33N 51°36' E 003°23'1212.1
2016-Dec-08 11:34N 51°26' E 003°34'1212.2
2016-Dec-08 10:34N 51°21' E 003°52'9 8.8
2016-Dec-08 09:33N 51°22' E 004°06'7 2.9
2016-Dec-08 07:04N 51°21' E 004°17'1 2.6
2016-Dec-08 06:34N 51°20' E 004°18'3 0.3
2016-Dec-07 22:31N 51°17' E 004°20'0 0.0
2016-Dec-07 20:13N 51°17' E 004°20'0 0.0
2016-Dec-07 13:28N 51°17' E 004°20'0 0.0
2016-Dec-07 05:33N 51°17' E 004°20'1 0.6
2016-Dec-07 04:30N 51°17' E 004°20'4 4.8
2016-Dec-07 03:33N 51°20' E 004°16'9 9.4
2016-Dec-07 02:33N 51°24' E 004°02'8 8.1
2016-Dec-07 01:33N 51°21' E 003°50'10 9.7
2016-Dec-07 00:33N 51°26' E 003°37'9 9.2
2016-Dec-06 23:33N 51°32' E 003°25'1010.0
2016-Dec-06 22:33N 51°41' E 003°18'8 7.8
2016-Dec-06 21:33N 51°48' E 003°15'1111.1
2016-Dec-06 20:33N 51°59' E 003°19'2310.9
2016-Dec-06 18:25N 52°22' E 003°18'1111.1
2016-Dec-06 17:25N 52°33' E 003°15'4712.2
2016-Dec-06 13:33N 53°20' E 003°29'6011.8
2016-Dec-06 08:28N 54°07' E 004°31'24312.2
2016-Dec-05 12:32N 57°24' E 008°44'1110.7
2016-Dec-05 11:33N 57°31' E 008°59'5110.2
2016-Dec-05 06:33N 57°49' E 010°29'9 9.2
2016-Dec-05 05:33N 57°48' E 010°46'1110.8
2016-Dec-05 04:33N 57°40' E 011°00'1111.3
2016-Dec-05 03:33N 57°33' E 011°16'1111.3
2016-Dec-05 02:33N 57°24' E 011°28'1211.6
2016-Dec-05 01:33N 57°13' E 011°36'1211.5
2016-Dec-05 00:31N 57°01' E 011°43'1110.8
2016-Dec-04 23:30N 56°51' E 011°50'1110.2
2016-Dec-04 22:23N 56°40' E 011°47'  
2016-Nov-29 05:12N 55°56' E 010°58'811.9
2016-Nov-29 04:31N 56°03' E 011°06'  
Track history (hours):
 
Tides and Currents Weather Stations Pressure Air Temp Water Temp Dewpoint Dewpoint Depression Visibility Wind Speed Wind Dir Waves Ship Positions

Autumn

Last reported at 2016-Dec-09 03:31 UTC. Time now 2016-Dec-09 04:00 UTC.
Position N 52°27' E 004°08'.

Length 129 m; draft 6.2 m.

Type: Tanker. MMSI: 538003323.

Date/timePositionNaut miles runAvg speedWind from/ knotsBaromVisibWave heightAir tempDewpointWater temp
2016-Dec-09 03:31N 52°27' E 004°08'0 0.0
2016-Dec-09 02:31N 52°28' E 004°08'0 0.1
2016-Dec-09 01:31N 52°28' E 004°08'0 0.0
2016-Dec-09 00:31N 52°28' E 004°08'0 0.0
2016-Dec-08 23:31N 52°28' E 004°08'0 0.0
2016-Dec-08 22:31N 52°28' E 004°08'0 0.0
2016-Dec-08 21:31N 52°28' E 004°08'0 0.0
2016-Dec-08 20:31N 52°28' E 004°08'0 0.1
2016-Dec-08 19:27N 52°28' E 004°08'8 8.8
2016-Dec-08 18:33N 52°27' E 003°55'4710.9
2016-Dec-08 14:16N 51°51' E 003°05'911.8
2016-Dec-08 13:32N 51°45' E 003°13'1010.6
2016-Dec-08 12:33N 51°36' E 003°23'1212.1
2016-Dec-08 11:34N 51°26' E 003°34'1212.2
2016-Dec-08 10:34N 51°21' E 003°52'9 8.8
2016-Dec-08 09:33N 51°22' E 004°06'7 2.9
2016-Dec-08 07:04N 51°21' E 004°17'1 2.6
2016-Dec-08 06:34N 51°20' E 004°18'3 0.3
2016-Dec-07 22:31N 51°17' E 004°20'0 0.0
2016-Dec-07 20:13N 51°17' E 004°20'0 0.0
2016-Dec-07 13:28N 51°17' E 004°20'0 0.0
2016-Dec-07 05:33N 51°17' E 004°20'1 0.6
2016-Dec-07 04:30N 51°17' E 004°20'4 4.8
2016-Dec-07 03:33N 51°20' E 004°16'9 9.4
2016-Dec-07 02:33N 51°24' E 004°02'8 8.1
2016-Dec-07 01:33N 51°21' E 003°50'10 9.7
2016-Dec-07 00:33N 51°26' E 003°37'9 9.2
2016-Dec-06 23:33N 51°32' E 003°25'1010.0
2016-Dec-06 22:33N 51°41' E 003°18'8 7.8
2016-Dec-06 21:33N 51°48' E 003°15'1111.1
2016-Dec-06 20:33N 51°59' E 003°19'2310.9
2016-Dec-06 18:25N 52°22' E 003°18'1111.1
2016-Dec-06 17:25N 52°33' E 003°15'4712.2
2016-Dec-06 13:33N 53°20' E 003°29'6011.8
2016-Dec-06 08:28N 54°07' E 004°31'24312.2
2016-Dec-05 12:32N 57°24' E 008°44'1110.7
2016-Dec-05 11:33N 57°31' E 008°59'5110.2
2016-Dec-05 06:33N 57°49' E 010°29'9 9.2
2016-Dec-05 05:33N 57°48' E 010°46'1110.8
2016-Dec-05 04:33N 57°40' E 011°00'1111.3
2016-Dec-05 03:33N 57°33' E 011°16'1111.3
2016-Dec-05 02:33N 57°24' E 011°28'1211.6
2016-Dec-05 01:33N 57°13' E 011°36'1211.5
2016-Dec-05 00:31N 57°01' E 011°43'1110.8
2016-Dec-04 23:30N 56°51' E 011°50'1110.2
2016-Dec-04 22:23N 56°40' E 011°47'  
2016-Nov-29 05:12N 55°56' E 010°58'811.9
2016-Nov-29 04:31N 56°03' E 011°06'  

Dump ship's entire track history